Pagrindinis puslapis
METAR-TAF:

METAR-TAF

Oro uostai :

Esbjergas, Danija

platuma: 55-32N, ilguma: 008-34E, Aukštis: 30 m

Dabartinis oras

Ataskaita buvo paskelbta 32 minutes, ne 02:20 UTC
Vėjas 5 kt iš Pietvakarių
Temperatūra 9°C
Drėgmė 100%
Slėgis 1017 hPa
Matomumas: 9000 m

METAR: EKEB 250220Z AUTO 23005KT 9000 NCD 09/09 Q1017

Laikas: 04:52 (02:52 UTC)

Prognozė

Ataskaita buvo paskelbta 36 minutes, ne 02:16 UTC
Prognozė galioja nuo 25 metu 03 UTC su 25 metu 12 UTC
Vėjas 2 kt nuo kintamojo kryptimis
Matomumas: 6000 m
Išsisklaidę debesys ne aukštis 3500 ft
Laikinai
nuo 25 metu 03 UTC su 25 metu 06 UTC
Matomumas: 2500 m
Su prošvaistėmis ne aukštis 500 ft
Rūkas lopais

TAF: EKEB 250216Z 2503/2512 VRB02KT 6000 SCT035 TEMPO 2503/2506 2500 BCFG BKN005

Orai ataskaitas ir orų prognozės (METAR, TAF).

turimą stotys yra geltonos ir raudonos taškus žemėlapyje.

Perkelti pele per norėdami pamatyti stoties vardą.

Tada spustelėkite, norėdami matyti oro stebėjimo ir prognozės.

Norėdami pakeisti žemėlapį: spustelėkite ant žalios mygtukų su juodo kryžiaus žemyn,; žalią mygtuką su brūkšneliu, jei norite nutolinti; arba žalių rodyklių gretimoms žemėlapius.


METAR-TAF: